Latest Weather Observations for Grove

IDT60801

Issued at 8:32 pm EDT Monday 23 October 2017 (issued every 30 minutes, with the page automatically refreshed every 10 minutes)

About weather observations | Map of weather stations | Latest weather observations for TAS | Other Formats
Station Details ID: 094220 Name: GROVE (RESEARCH STATION) Lat: -42.99 Lon: 147.07 Height: 65.0 m
Data from the previous 72 hours. | See also: Recent months at Grove
Date/Time
EDT
Temp
°C
App
Temp
°C
Dew
Point
°C
Rel
Hum
%
Delta-T
°C
Wind Press
QNH
hPa
Press
MSL
hPa
Rain since
9am
mm
Dir  Spd
km/h
Gust
km/h
Spd
kts
Gust
kts
23/08:30pm 14.2 12.4 9.3 72 2.5 SW 9 13 5 7 - - 0.0
23/08:00pm 14.8 13.0 9.4 70 2.8 S 9 13 5 7 - - 0.0
23/07:30pm 14.9 13.8 9.9 72 2.6 SSW 6 9 3 5 - - 0.0
23/07:00pm 15.0 14.0 10.4 74 2.4 NE 6 11 3 6 - - 0.0
23/06:30pm 15.3 13.7 10.2 71 2.7 S 9 13 5 7 - - 0.0
23/06:00pm 15.4 14.3 10.5 72 2.6 SSW 7 15 4 8 - - 0.0
23/05:30pm 15.6 13.9 9.9 69 3.0 S 9 13 5 7 - - 0.0
23/05:00pm 15.9 13.8 9.8 67 3.2 SSW 11 19 6 10 - - 0.0
23/04:30pm 16.0 13.6 9.9 67 3.2 SSW 13 19 7 10 - - 0.0
23/04:00pm 16.4 13.5 9.7 64 3.5 SW 15 24 8 13 - - 0.0
23/03:30pm 16.7 14.3 10.1 65 3.5 SSW 13 20 7 11 - - 0.0
23/03:00pm 17.1 14.4 10.3 64 3.6 SW 15 26 8 14 - - 0.0
23/02:30pm 17.4 15.1 10.3 63 3.8 SW 13 20 7 11 - - 0.0
23/02:00pm 17.5 16.0 10.6 64 3.7 SW 9 13 5 7 - - 0.0
23/01:30pm 17.6 15.8 10.7 64 3.7 SW 11 15 6 8 - - 0.0
23/01:00pm 17.8 16.5 10.1 60 4.1 NW 7 11 4 6 - - 0.0
23/12:30pm 17.4 15.3 9.6 60 4.1 NNW 11 15 6 8 - - 0.0
23/12:00pm 17.7 16.0 10.0 60 4.1 S 9 13 5 7 - - 0.0
23/11:30am 17.4 15.4 10.3 63 3.8 SW 11 19 6 10 - - 0.0
23/11:00am 16.8 14.2 9.3 61 3.9 SSW 13 19 7 10 - - 0.0
23/10:30am 16.2 14.0 9.5 64 3.5 S 11 15 6 8 - - 0.0
23/10:00am 15.6 14.1 10.5 71 2.7 WSW 9 11 5 6 - - 0.0
23/09:30am 14.5 12.6 9.2 70 2.7 SW 9 13 5 7 - - 0.0
23/09:00am 15.3 13.9 9.7 69 2.9 SW 7 13 4 7 - - 0.0
23/08:30am 14.7 13.6 9.9 73 2.5 NNE 6 7 3 4 - - 0.0
23/08:00am 12.5 11.1 8.9 79 1.8 ESE 6 13 3 7 - - 0.0
23/07:30am 10.9 10.2 8.7 86 1.1 N 2 7 1 4 - - 0.0
23/07:00am 10.2 9.0 7.9 86 1.1 ENE 4 9 2 5 - - 0.0
23/06:30am 10.3 9.9 8.3 87 1.0 CALM 0 0 0 0 - - 0.0
23/06:00am 11.0 9.2 7.9 81 1.5 W 7 11 4 6 - - 0.0
23/05:30am 11.0 8.8 7.9 81 1.5 WNW 9 11 5 6 - - 0.0
23/05:00am 11.8 10.0 8.1 78 1.8 WSW 7 13 4 7 - - 0.0
23/04:30am 12.9 9.9 7.6 70 2.6 S 13 19 7 10 - - 0.0
23/04:00am 12.6 10.7 7.7 72 2.4 WSW 7 17 4 9 - - 0.0
23/03:30am 12.9 10.6 7.4 69 2.7 SSW 9 17 5 9 - - 0.0
23/03:00am 11.4 10.5 7.9 79 1.7 WSW 2 7 1 4 - - 0.0
23/02:30am 13.0 10.6 7.0 67 2.9 S 9 17 5 9 - - 0.0
23/02:00am 12.1 10.4 7.6 74 2.2 W 6 13 3 7 - - 0.0
23/01:30am 12.1 10.4 7.4 73 2.3 SSW 6 11 3 6 - - 0.0
23/01:00am 12.0 10.7 7.7 75 2.1 NNE 4 6 2 3 - - 0.0
23/12:30am 12.9 10.0 6.7 66 3.0 S 11 19 6 10 - - 0.0
23/12:00am 12.0 11.7 8.6 80 1.7 CALM 0 0 0 0 - - 0.0
 
Date/Time
EDT
Temp
°C
App
Temp
°C
Dew
Point
°C
Rel
Hum
%
Delta-T
°C
Wind Press
QNH
hPa
Press
MSL
hPa
Rain since
9am
mm
Dir  Spd
km/h
Gust
km/h
Spd
kts
Gust
kts
22/11:30pm 11.9 11.1 8.0 77 1.9 NNW 2 6 1 3 - - 0.0
22/11:00pm 12.6 10.8 7.2 69 2.6 NNE 6 7 3 4 - - 0.0
22/10:30pm 13.0 11.0 7.0 67 2.9 SSW 7 13 4 7 - - 0.0
22/10:00pm 13.2 10.4 7.0 66 3.0 S 11 17 6 9 - - 0.0
22/09:30pm 13.2 10.4 7.0 66 3.0 S 11 17 6 9 - - 0.0
22/09:00pm 13.6 10.3 6.3 61 3.5 S 13 19 7 10 - - 0.0
22/08:30pm 13.7 10.3 5.9 59 3.7 SSW 13 24 7 13 - - 0.0
22/08:00pm 14.0 10.6 5.8 57 3.9 SW 13 19 7 10 - - 0.0
22/07:30pm 14.3 10.7 4.9 53 4.4 SSW 13 19 7 10 - - 0.0
22/07:00pm 14.5 10.7 5.7 55 4.2 SSW 15 22 8 12 - - 0.0
22/06:30pm 14.9 10.2 6.0 55 4.3 SW 20 33 11 18 - - 0.0
22/06:00pm 15.5 10.6 4.9 49 5.0 SW 20 32 11 17 - - 0.0
22/05:30pm 16.5 11.9 6.3 51 5.0 SW 20 30 11 16 - - 0.0
22/05:00pm 16.8 12.1 5.9 48 5.3 SW 20 35 11 19 - - 0.0
22/04:30pm 17.1 12.5 6.3 49 5.3 SW 20 32 11 17 - - 0.0
22/04:00pm 17.4 13.4 6.5 48 5.4 WSW 17 24 9 13 - - 0.0
22/03:30pm 17.6 13.1 6.0 46 5.7 WSW 19 28 10 15 - - 0.0
22/03:00pm 18.0 14.4 6.8 48 5.6 WSW 15 28 8 15 - - 0.0
22/02:30pm 17.0 13.0 6.5 50 5.2 WSW 17 32 9 17 - - 0.0
22/02:00pm 16.4 12.1 7.2 54 4.6 SW 19 30 10 16 - - 0.0
22/01:30pm 17.3 13.5 7.6 53 4.9 WSW 17 32 9 17 - - 0.0
22/01:00pm 16.0 10.9 5.9 51 4.9 SW 22 32 12 17 - - 0.0
22/12:30pm 16.3 12.2 6.3 51 4.9 SW 17 24 9 13 - - 0.0
22/12:00pm 15.7 11.1 6.5 54 4.5 SW 20 32 11 17 - - 0.0
22/11:30am 15.9 11.6 7.0 55 4.4 SW 19 28 10 15 - - 0.0
22/11:00am 14.6 9.8 5.8 55 4.2 SW 20 30 11 16 - - 0.0
22/10:30am 14.6 10.5 6.3 57 4.0 SW 17 24 9 13 - - 0.0
22/10:00am 14.5 10.7 5.9 56 4.1 SW 15 22 8 12 - - 0.0
22/09:30am 13.8 10.1 6.5 61 3.5 SW 15 26 8 14 - - 0.0
22/09:00am 13.1 8.8 6.9 66 3.0 SSW 19 24 10 13 - - 0.0
22/08:30am 12.5 10.0 6.7 68 2.8 WSW 9 24 5 13 - - 0.0
22/08:00am 12.0 10.0 7.2 72 2.3 S 7 11 4 6 - - 0.0
22/07:30am 11.9 10.2 7.6 75 2.1 SSW 6 9 3 5 - - 0.0
22/07:00am 11.6 10.2 7.2 74 2.1 SSE 4 9 2 5 - - 0.0
22/06:30am 11.1 8.7 7.1 76 1.9 SSW 9 19 5 10 - - 0.0
22/06:00am 11.1 8.7 7.1 76 1.9 SW 9 15 5 8 - - 0.0
22/05:30am 10.9 8.9 7.1 77 1.8 SW 7 11 4 6 - - 0.0
22/05:00am 10.9 9.2 7.4 79 1.7 SSW 6 7 3 4 - - 0.0
22/04:30am 11.5 9.8 7.4 76 2.0 SW 6 11 3 6 - - 0.0
22/04:00am 11.6 9.9 7.5 76 2.0 SW 6 9 3 5 - - 0.0
22/03:30am 11.7 9.4 7.4 75 2.1 WSW 9 11 5 6 - - 0.0
22/03:00am 11.9 9.1 6.9 71 2.4 WSW 11 15 6 8 - - 0.0
22/02:30am 11.8 9.0 6.8 71 2.4 SSW 11 15 6 8 - - 0.0
22/02:00am 11.9 9.8 6.7 70 2.5 WSW 7 13 4 7 - - 0.0
22/01:30am 11.8 9.7 6.8 71 2.4 SW 7 11 4 6 - - 0.0
22/01:00am 11.3 9.6 7.4 77 1.9 SSE 6 7 3 4 - - 0.0
22/12:30am 11.8 9.4 6.8 71 2.4 WSW 9 13 5 7 - - 0.0
22/12:00am 11.6 9.2 7.0 73 2.2 WSW 9 17 5 9 - - 0.0
 
Date/Time
EDT
Temp
°C
App
Temp
°C
Dew
Point
°C
Rel
Hum
%
Delta-T
°C
Wind Press
QNH
hPa
Press
MSL
hPa
Rain since
9am
mm
Dir  Spd
km/h
Gust
km/h
Spd
kts
Gust
kts
21/11:30pm 11.5 9.8 7.4 76 2.0 SSW 6 9 3 5 - - 0.0
21/11:00pm 11.4 9.5 7.7 78 1.8 S 7 15 4 8 - - 0.0
21/10:30pm 11.5 9.8 7.4 76 2.0 SSW 6 13 3 7 - - 0.0
21/10:00pm 12.5 9.2 6.2 65 3.0 W 13 19 7 10 - - 0.0
21/09:30pm 12.5 9.5 6.2 65 3.0 WSW 11 19 6 10 - - 0.0
21/09:00pm 12.0 9.6 7.2 72 2.3 SW 9 13 5 7 - - 0.0
21/08:30pm 12.4 10.4 7.2 70 2.5 S 7 13 4 7 - - 0.0
21/08:00pm 12.5 9.7 7.1 69 2.6 S 11 17 6 9 - - 0.0
21/07:30pm 13.5 11.0 6.4 62 3.4 SW 9 17 5 9 - - 0.0
21/07:00pm 13.6 9.9 6.3 61 3.5 SW 15 24 8 13 - - 0.0
21/06:30pm 14.0 10.7 6.3 60 3.7 SW 13 20 7 11 - - 0.0
21/06:00pm 13.9 10.1 5.9 58 3.8 WSW 15 26 8 14 - - 0.0
21/05:30pm 15.2 10.7 6.1 54 4.4 SW 19 35 10 19 - - 0.0
21/05:00pm 14.8 10.6 5.8 55 4.3 SW 17 24 9 13 - - 0.0
21/04:30pm 15.0 11.3 6.3 56 4.2 WSW 15 28 8 15 - - 0.0
21/04:00pm 15.0 11.4 6.6 57 4.1 WSW 15 32 8 17 - - 0.0
21/03:30pm 15.1 11.2 7.2 59 3.9 SW 17 39 9 21 - - 0.0
21/03:00pm 14.7 10.4 7.7 63 3.5 W 20 39 11 21 - - 0.0
21/02:30pm 14.4 9.9 6.1 57 4.0 WSW 19 30 10 16 - - 0.0
21/02:00pm 14.7 9.9 5.7 55 4.3 WSW 20 41 11 22 - - 0.0
21/01:30pm 15.1 10.4 6.0 54 4.4 WSW 20 33 11 18 - - 0.0
21/01:00pm 15.3 10.6 6.0 54 4.5 WSW 20 32 11 17 - - 0.0
21/12:30pm 15.2 10.0 5.6 52 4.6 WSW 22 37 12 20 - - 0.0
21/12:00pm 15.7 9.7 5.5 50 4.9 WSW 26 39 14 21 - - 0.0
21/11:30am 15.4 9.5 5.6 52 4.7 W 26 43 14 23 - - 0.0
21/11:19am 14.6 8.1 4.5 50 4.7 W 28 46 15 25 - - 0.0
21/11:00am 14.7 11.3 5.9 55 4.2 WSW 13 24 7 13 - - 0.0
21/10:30am 13.7 10.6 5.7 58 3.8 W 11 20 6 11 - - 0.0
21/10:00am 13.9 9.5 4.9 54 4.2 W 17 28 9 15 - - 0.0
21/09:30am 13.3 9.9 5.7 60 3.6 WSW 13 20 7 11 - - 0.0
21/09:00am 12.7 8.7 4.9 59 3.6 WSW 15 30 8 16 - - 0.0
21/08:30am 12.3 9.1 5.2 62 3.3 WSW 11 17 6 9 - - 0.0
21/08:00am 11.5 7.4 4.4 61 3.2 WSW 15 28 8 15 - - 0.0
21/07:30am 10.9 7.2 4.5 64 2.9 W 13 28 7 15 - - 0.0
21/07:00am 10.6 6.8 4.1 64 2.9 SW 13 22 7 12 - - 0.0
21/06:30am 11.0 6.7 3.5 60 3.3 SW 15 24 8 13 - - 0.0
21/06:00am 10.4 6.2 3.8 63 2.9 SSW 15 28 8 15 - - 0.0
21/05:30am 10.4 6.2 3.6 63 3.0 SW 15 28 8 15 - - 0.0
21/05:00am 10.3 6.0 3.2 61 3.1 WSW 15 24 8 13 - - 0.0
21/04:30am 10.0 6.0 2.8 61 3.1 WSW 13 20 7 11 - - 0.0
21/04:00am 10.3 4.9 2.3 57 3.4 WSW 20 39 11 21 - - 0.0
21/03:30am 9.7 6.4 2.4 60 3.1 W 9 19 5 10 - - 0.0
21/03:00am 9.5 6.9 3.0 64 2.8 N 6 11 3 6 - - 0.0
21/02:30am 10.3 4.9 2.3 57 3.4 NNW 20 28 11 15 - - 0.0
21/02:00am 10.1 6.1 2.6 59 3.2 W 13 22 7 12 - - 0.0
21/01:30am 10.3 7.0 2.3 57 3.4 W 9 24 5 13 - - 0.0
21/01:00am 10.7 7.3 1.7 53 3.8 NNW 9 15 5 8 - - 0.0
21/12:30am 10.5 5.2 2.0 55 3.6 NNW 19 22 10 12 - - 0.0
21/12:00am 10.4 6.7 2.2 57 3.5 WSW 11 15 6 8 - - 0.0
 
Date/Time
EDT
Temp
°C
App
Temp
°C
Dew
Point
°C
Rel
Hum
%
Delta-T
°C
Wind Press
QNH
hPa
Press
MSL
hPa
Rain since
9am
mm
Dir  Spd
km/h
Gust
km/h
Spd
kts
Gust
kts
20/11:30pm 10.4 6.7 2.2 57 3.5 WSW 11 19 6 10 - - 0.0
20/11:00pm 10.6 6.4 1.9 55 3.7 WSW 13 24 7 13 - - 0.0
20/10:30pm 10.2 6.5 2.5 59 3.3 WSW 11 19 6 10 - - 0.0
20/10:00pm 10.7 6.5 1.4 52 3.9 NW 13 22 7 12 - - 0.0
20/09:30pm 10.4 7.3 1.6 54 3.7 E 7 13 4 7 - - 0.0
20/09:00pm 10.4 7.6 1.9 55 3.6 SSW 6 13 3 7 - - 0.0

Other Formats:

Comma delimited format used in spreadsheet applications
http://www.bom.gov.au/fwo/IDT60801/IDT60801.95977.axf

JavaScript Object Notation format (JSON) in row-major order
http://www.bom.gov.au/fwo/IDT60801/IDT60801.95977.json